sensor_id;sensor_type;location;lat;lon;timestamp;P1;durP1;ratioP1;P2;durP2;ratioP2
19810;SDS011;10065;49.632;8.346;2023-02-08T00:01:06;19.23;;;9.17;;
19810;SDS011;10065;49.632;8.346;2023-02-08T00:03:35;19.63;;;8.20;;
19810;SDS011;10065;49.632;8.346;2023-02-08T00:06:03;21.63;;;9.17;;
19810;SDS011;10065;49.632;8.346;2023-02-08T00:08:33;19.80;;;8.87;;
19810;SDS011;10065;49.632;8.346;2023-02-08T00:11:01;17.70;;;8.60;;
19810;SDS011;10065;49.632;8.346;2023-02-08T00:13:29;18.53;;;8.93;;
19810;SDS011;10065;49.632;8.346;2023-02-08T00:15:57;18.60;;;9.37;;
19810;SDS011;10065;49.632;8.346;2023-02-08T00:18:26;22.60;;;9.17;;
19810;SDS011;10065;49.632;8.346;2023-02-08T00:20:54;19.03;;;8.70;;
19810;SDS011;10065;49.632;8.346;2023-02-08T00:23:22;19.80;;;8.13;;
19810;SDS011;10065;49.632;8.346;2023-02-08T00:25:50;19.03;;;9.13;;
19810;SDS011;10065;49.632;8.346;2023-02-08T00:28:18;22.60;;;9.97;;
19810;SDS011;10065;49.632;8.346;2023-02-08T00:30:46;19.40;;;8.70;;
19810;SDS011;10065;49.632;8.346;2023-02-08T00:33:15;18.87;;;8.63;;
19810;SDS011;10065;49.632;8.346;2023-02-08T00:35:44;18.80;;;9.67;;
19810;SDS011;10065;49.632;8.346;2023-02-08T00:38:11;18.10;;;7.87;;
19810;SDS011;10065;49.632;8.346;2023-02-08T00:40:39;19.57;;;8.53;;
19810;SDS011;10065;49.632;8.346;2023-02-08T00:43:07;24.40;;;9.33;;
19810;SDS011;10065;49.632;8.346;2023-02-08T00:45:35;22.93;;;9.67;;
19810;SDS011;10065;49.632;8.346;2023-02-08T00:48:03;17.90;;;8.33;;
19810;SDS011;10065;49.632;8.346;2023-02-08T00:50:30;23.97;;;9.70;;
19810;SDS011;10065;49.632;8.346;2023-02-08T00:52:59;20.13;;;9.07;;
19810;SDS011;10065;49.632;8.346;2023-02-08T00:55:27;17.93;;;8.57;;
19810;SDS011;10065;49.632;8.346;2023-02-08T00:57:55;20.27;;;9.40;;
19810;SDS011;10065;49.632;8.346;2023-02-08T01:00:23;20.67;;;8.77;;
19810;SDS011;10065;49.632;8.346;2023-02-08T01:02:50;27.17;;;9.47;;
19810;SDS011;10065;49.632;8.346;2023-02-08T01:05:18;19.27;;;8.97;;
19810;SDS011;10065;49.632;8.346;2023-02-08T01:07:46;21.00;;;9.50;;
19810;SDS011;10065;49.632;8.346;2023-02-08T01:10:15;19.10;;;8.83;;
19810;SDS011;10065;49.632;8.346;2023-02-08T01:12:43;17.43;;;8.70;;
19810;SDS011;10065;49.632;8.346;2023-02-08T01:15:10;19.57;;;8.80;;
19810;SDS011;10065;49.632;8.346;2023-02-08T01:17:38;20.87;;;8.80;;
19810;SDS011;10065;49.632;8.346;2023-02-08T01:20:06;18.50;;;8.20;;
19810;SDS011;10065;49.632;8.346;2023-02-08T01:22:34;17.03;;;7.80;;
19810;SDS011;10065;49.632;8.346;2023-02-08T01:25:02;18.60;;;8.50;;
19810;SDS011;10065;49.632;8.346;2023-02-08T01:27:31;22.83;;;8.60;;
19810;SDS011;10065;49.632;8.346;2023-02-08T01:29:58;25.77;;;8.27;;
19810;SDS011;10065;49.632;8.346;2023-02-08T01:32:26;18.43;;;8.80;;
19810;SDS011;10065;49.632;8.346;2023-02-08T01:34:54;18.23;;;8.27;;
19810;SDS011;10065;49.632;8.346;2023-02-08T01:37:21;16.43;;;7.57;;
19810;SDS011;10065;49.632;8.346;2023-02-08T01:39:49;15.93;;;7.27;;
19810;SDS011;10065;49.632;8.346;2023-02-08T01:42:17;15.53;;;7.97;;
19810;SDS011;10065;49.632;8.346;2023-02-08T01:47:57;16.60;;;8.27;;
19810;SDS011;10065;49.632;8.346;2023-02-08T01:50:31;15.77;;;7.90;;
19810;SDS011;10065;49.632;8.346;2023-02-08T01:53:06;18.80;;;9.07;;
19810;SDS011;10065;49.632;8.346;2023-02-08T01:55:34;17.33;;;8.37;;
19810;SDS011;10065;49.632;8.346;2023-02-08T01:58:08;17.43;;;7.37;;
19810;SDS011;10065;49.632;8.346;2023-02-08T02:00:39;17.30;;;8.03;;
19810;SDS011;10065;49.632;8.346;2023-02-08T02:03:07;15.97;;;8.23;;
19810;SDS011;10065;49.632;8.346;2023-02-08T02:05:37;17.90;;;8.00;;
19810;SDS011;10065;49.632;8.346;2023-02-08T02:08:07;17.40;;;8.47;;
19810;SDS011;10065;49.632;8.346;2023-02-08T02:10:36;17.87;;;8.50;;
19810;SDS011;10065;49.632;8.346;2023-02-08T02:13:06;18.57;;;9.00;;
19810;SDS011;10065;49.632;8.346;2023-02-08T02:15:35;20.73;;;8.77;;
19810;SDS011;10065;49.632;8.346;2023-02-08T02:18:06;16.63;;;8.33;;
19810;SDS011;10065;49.632;8.346;2023-02-08T02:20:40;16.73;;;8.43;;
19810;SDS011;10065;49.632;8.346;2023-02-08T02:23:30;14.23;;;6.80;;
19810;SDS011;10065;49.632;8.346;2023-02-08T02:32:30;17.37;;;8.20;;
19810;SDS011;10065;49.632;8.346;2023-02-08T02:35:12;18.30;;;7.33;;
19810;SDS011;10065;49.632;8.346;2023-02-08T02:37:47;15.97;;;7.33;;
19810;SDS011;10065;49.632;8.346;2023-02-08T02:40:25;16.97;;;7.63;;
19810;SDS011;10065;49.632;8.346;2023-02-08T02:43:04;27.37;;;9.80;;
19810;SDS011;10065;49.632;8.346;2023-02-08T02:45:58;17.43;;;8.07;;
19810;SDS011;10065;49.632;8.346;2023-02-08T02:48:34;18.37;;;7.50;;
19810;SDS011;10065;49.632;8.346;2023-02-08T02:51:08;17.97;;;8.00;;
19810;SDS011;10065;49.632;8.346;2023-02-08T02:53:43;19.33;;;8.10;;
19810;SDS011;10065;49.632;8.346;2023-02-08T02:56:16;19.00;;;8.30;;
19810;SDS011;10065;49.632;8.346;2023-02-08T02:58:48;18.43;;;8.73;;
19810;SDS011;10065;49.632;8.346;2023-02-08T03:01:20;15.23;;;6.70;;
19810;SDS011;10065;49.632;8.346;2023-02-08T03:03:52;16.60;;;7.43;;
19810;SDS011;10065;49.632;8.346;2023-02-08T03:06:23;17.60;;;7.70;;
19810;SDS011;10065;49.632;8.346;2023-02-08T03:09:13;14.90;;;7.47;;
19810;SDS011;10065;49.632;8.346;2023-02-08T03:11:53;23.30;;;7.73;;
19810;SDS011;10065;49.632;8.346;2023-02-08T03:14:32;14.03;;;7.07;;
19810;SDS011;10065;49.632;8.346;2023-02-08T03:20:03;16.57;;;7.90;;
19810;SDS011;10065;49.632;8.346;2023-02-08T03:22:37;15.17;;;6.83;;
19810;SDS011;10065;49.632;8.346;2023-02-08T03:25:13;15.40;;;7.33;;
19810;SDS011;10065;49.632;8.346;2023-02-08T03:27:48;18.27;;;7.63;;
19810;SDS011;10065;49.632;8.346;2023-02-08T03:30:25;17.13;;;7.83;;
19810;SDS011;10065;49.632;8.346;2023-02-08T03:32:57;14.30;;;7.80;;
19810;SDS011;10065;49.632;8.346;2023-02-08T03:35:32;14.97;;;7.37;;
19810;SDS011;10065;49.632;8.346;2023-02-08T03:38:03;16.07;;;7.30;;
19810;SDS011;10065;49.632;8.346;2023-02-08T03:40:34;17.23;;;7.43;;
19810;SDS011;10065;49.632;8.346;2023-02-08T03:43:06;17.63;;;7.97;;
19810;SDS011;10065;49.632;8.346;2023-02-08T03:45:38;14.57;;;7.27;;
19810;SDS011;10065;49.632;8.346;2023-02-08T03:48:09;14.30;;;7.10;;
19810;SDS011;10065;49.632;8.346;2023-02-08T03:50:41;16.67;;;8.00;;
19810;SDS011;10065;49.632;8.346;2023-02-08T03:53:12;18.77;;;7.67;;
19810;SDS011;10065;49.632;8.346;2023-02-08T03:55:44;15.10;;;7.33;;
19810;SDS011;10065;49.632;8.346;2023-02-08T03:58:15;20.17;;;8.10;;
19810;SDS011;10065;49.632;8.346;2023-02-08T04:00:50;17.53;;;8.00;;
19810;SDS011;10065;49.632;8.346;2023-02-08T04:03:23;18.53;;;7.53;;
19810;SDS011;10065;49.632;8.346;2023-02-08T04:05:54;19.23;;;8.63;;
19810;SDS011;10065;49.632;8.346;2023-02-08T04:08:22;16.00;;;7.63;;
19810;SDS011;10065;49.632;8.346;2023-02-08T04:10:50;18.50;;;8.00;;
19810;SDS011;10065;49.632;8.346;2023-02-08T04:13:18;17.80;;;7.20;;
19810;SDS011;10065;49.632;8.346;2023-02-08T04:15:46;18.27;;;7.77;;
19810;SDS011;10065;49.632;8.346;2023-02-08T04:18:14;19.30;;;8.30;;
19810;SDS011;10065;49.632;8.346;2023-02-08T04:20:41;17.07;;;7.30;;
19810;SDS011;10065;49.632;8.346;2023-02-08T04:23:10;18.40;;;7.13;;
19810;SDS011;10065;49.632;8.346;2023-02-08T04:25:38;15.13;;;7.27;;
19810;SDS011;10065;49.632;8.346;2023-02-08T04:28:05;14.50;;;7.23;;
19810;SDS011;10065;49.632;8.346;2023-02-08T04:30:33;18.77;;;7.77;;
19810;SDS011;10065;49.632;8.346;2023-02-08T04:33:01;15.80;;;6.37;;
19810;SDS011;10065;49.632;8.346;2023-02-08T04:35:29;15.47;;;6.50;;
19810;SDS011;10065;49.632;8.346;2023-02-08T04:37:56;13.50;;;7.07;;
19810;SDS011;10065;49.632;8.346;2023-02-08T04:40:26;16.43;;;7.57;;
19810;SDS011;10065;49.632;8.346;2023-02-08T04:42:54;14.77;;;7.23;;
19810;SDS011;10065;49.632;8.346;2023-02-08T04:45:22;18.83;;;7.20;;
19810;SDS011;10065;49.632;8.346;2023-02-08T04:47:50;13.50;;;6.97;;
19810;SDS011;10065;49.632;8.346;2023-02-08T04:50:18;16.30;;;7.33;;
19810;SDS011;10065;49.632;8.346;2023-02-08T04:52:45;16.40;;;7.17;;
19810;SDS011;10065;49.632;8.346;2023-02-08T04:55:13;16.07;;;7.90;;
19810;SDS011;10065;49.632;8.346;2023-02-08T04:57:42;16.50;;;7.73;;
19810;SDS011;10065;49.632;8.346;2023-02-08T05:00:10;13.80;;;6.87;;
19810;SDS011;10065;49.632;8.346;2023-02-08T05:02:39;15.60;;;6.93;;
19810;SDS011;10065;49.632;8.346;2023-02-08T05:05:06;18.37;;;7.13;;
19810;SDS011;10065;49.632;8.346;2023-02-08T05:07:37;13.23;;;6.83;;
19810;SDS011;10065;49.632;8.346;2023-02-08T05:10:05;18.30;;;7.23;;
19810;SDS011;10065;49.632;8.346;2023-02-08T05:12:33;17.90;;;7.70;;
19810;SDS011;10065;49.632;8.346;2023-02-08T05:15:02;15.20;;;6.53;;
19810;SDS011;10065;49.632;8.346;2023-02-08T05:17:31;17.33;;;7.10;;
19810;SDS011;10065;49.632;8.346;2023-02-08T05:19:59;13.77;;;6.93;;
19810;SDS011;10065;49.632;8.346;2023-02-08T05:22:26;19.87;;;7.53;;
19810;SDS011;10065;49.632;8.346;2023-02-08T05:24:54;16.50;;;7.27;;
19810;SDS011;10065;49.632;8.346;2023-02-08T05:27:22;18.47;;;7.10;;
19810;SDS011;10065;49.632;8.346;2023-02-08T05:29:50;16.43;;;7.57;;
19810;SDS011;10065;49.632;8.346;2023-02-08T05:32:19;16.43;;;7.50;;
19810;SDS011;10065;49.632;8.346;2023-02-08T05:34:46;17.90;;;7.63;;
19810;SDS011;10065;49.632;8.346;2023-02-08T05:37:15;16.97;;;7.63;;
19810;SDS011;10065;49.632;8.346;2023-02-08T05:39:43;15.53;;;7.50;;
19810;SDS011;10065;49.632;8.346;2023-02-08T05:42:10;22.90;;;6.97;;
19810;SDS011;10065;49.632;8.346;2023-02-08T05:44:38;15.00;;;6.70;;
19810;SDS011;10065;49.632;8.346;2023-02-08T05:47:06;18.10;;;7.30;;
19810;SDS011;10065;49.632;8.346;2023-02-08T05:49:35;17.07;;;7.53;;
19810;SDS011;10065;49.632;8.346;2023-02-08T05:52:03;20.50;;;7.70;;
19810;SDS011;10065;49.632;8.346;2023-02-08T05:54:31;14.40;;;7.17;;
19810;SDS011;10065;49.632;8.346;2023-02-08T05:56:58;14.37;;;7.00;;
19810;SDS011;10065;49.632;8.346;2023-02-08T05:59:26;17.00;;;7.73;;
19810;SDS011;10065;49.632;8.346;2023-02-08T06:01:54;13.43;;;6.57;;
19810;SDS011;10065;49.632;8.346;2023-02-08T06:04:21;15.97;;;7.10;;
19810;SDS011;10065;49.632;8.346;2023-02-08T06:06:51;19.20;;;7.33;;
19810;SDS011;10065;49.632;8.346;2023-02-08T06:09:18;15.63;;;7.00;;
19810;SDS011;10065;49.632;8.346;2023-02-08T06:11:46;19.10;;;8.03;;
19810;SDS011;10065;49.632;8.346;2023-02-08T06:14:14;16.43;;;7.37;;
19810;SDS011;10065;49.632;8.346;2023-02-08T06:16:41;14.63;;;6.63;;
19810;SDS011;10065;49.632;8.346;2023-02-08T06:19:09;21.43;;;7.20;;
19810;SDS011;10065;49.632;8.346;2023-02-08T06:21:38;18.77;;;7.97;;
19810;SDS011;10065;49.632;8.346;2023-02-08T06:24:09;15.70;;;7.37;;
19810;SDS011;10065;49.632;8.346;2023-02-08T06:26:38;16.43;;;7.30;;
19810;SDS011;10065;49.632;8.346;2023-02-08T06:29:06;13.90;;;7.17;;
19810;SDS011;10065;49.632;8.346;2023-02-08T06:31:34;15.97;;;7.77;;
19810;SDS011;10065;49.632;8.346;2023-02-08T06:34:02;16.40;;;7.33;;
19810;SDS011;10065;49.632;8.346;2023-02-08T06:36:30;18.10;;;7.87;;
19810;SDS011;10065;49.632;8.346;2023-02-08T06:38:58;15.63;;;7.40;;
19810;SDS011;10065;49.632;8.346;2023-02-08T06:41:27;17.57;;;7.57;;
19810;SDS011;10065;49.632;8.346;2023-02-08T06:43:55;20.20;;;7.43;;
19810;SDS011;10065;49.632;8.346;2023-02-08T06:46:24;17.50;;;6.27;;
19810;SDS011;10065;49.632;8.346;2023-02-08T06:48:52;16.87;;;7.63;;
19810;SDS011;10065;49.632;8.346;2023-02-08T06:51:20;16.17;;;6.93;;
19810;SDS011;10065;49.632;8.346;2023-02-08T06:53:48;17.47;;;7.70;;
19810;SDS011;10065;49.632;8.346;2023-02-08T06:56:31;13.30;;;6.20;;
19810;SDS011;10065;49.632;8.346;2023-02-08T06:58:58;17.83;;;6.93;;
19810;SDS011;10065;49.632;8.346;2023-02-08T07:01:26;19.73;;;7.40;;
19810;SDS011;10065;49.632;8.346;2023-02-08T07:03:54;19.40;;;7.47;;
19810;SDS011;10065;49.632;8.346;2023-02-08T07:06:22;18.33;;;7.53;;
19810;SDS011;10065;49.632;8.346;2023-02-08T07:08:50;15.23;;;6.47;;
19810;SDS011;10065;49.632;8.346;2023-02-08T07:11:21;16.47;;;6.93;;
19810;SDS011;10065;49.632;8.346;2023-02-08T07:13:50;16.00;;;6.63;;
19810;SDS011;10065;49.632;8.346;2023-02-08T07:16:19;20.27;;;7.23;;
19810;SDS011;10065;49.632;8.346;2023-02-08T07:18:48;19.13;;;7.53;;
19810;SDS011;10065;49.632;8.346;2023-02-08T07:21:15;15.10;;;7.13;;
19810;SDS011;10065;49.632;8.346;2023-02-08T07:23:43;18.03;;;7.13;;
19810;SDS011;10065;49.632;8.346;2023-02-08T07:26:11;23.20;;;6.80;;
19810;SDS011;10065;49.632;8.346;2023-02-08T07:28:40;17.60;;;7.37;;
19810;SDS011;10065;49.632;8.346;2023-02-08T07:31:10;16.67;;;7.37;;
19810;SDS011;10065;49.632;8.346;2023-02-08T07:33:40;18.07;;;7.10;;
19810;SDS011;10065;49.632;8.346;2023-02-08T07:36:08;18.00;;;7.73;;
19810;SDS011;10065;49.632;8.346;2023-02-08T07:38:36;21.30;;;8.10;;
19810;SDS011;10065;49.632;8.346;2023-02-08T07:41:05;21.93;;;7.73;;
19810;SDS011;10065;49.632;8.346;2023-02-08T07:43:35;17.57;;;6.37;;
19810;SDS011;10065;49.632;8.346;2023-02-08T07:46:04;15.27;;;6.57;;
19810;SDS011;10065;49.632;8.346;2023-02-08T07:48:35;18.47;;;7.30;;
19810;SDS011;10065;49.632;8.346;2023-02-08T07:51:05;18.80;;;7.07;;
19810;SDS011;10065;49.632;8.346;2023-02-08T07:53:33;19.93;;;7.40;;
19810;SDS011;10065;49.632;8.346;2023-02-08T07:56:02;17.77;;;7.50;;
19810;SDS011;10065;49.632;8.346;2023-02-08T07:58:30;19.87;;;7.17;;
19810;SDS011;10065;49.632;8.346;2023-02-08T08:00:57;18.57;;;7.73;;
19810;SDS011;10065;49.632;8.346;2023-02-08T08:03:42;16.53;;;7.53;;
19810;SDS011;10065;49.632;8.346;2023-02-08T08:06:10;18.77;;;8.20;;
19810;SDS011;10065;49.632;8.346;2023-02-08T08:08:38;18.40;;;7.87;;
19810;SDS011;10065;49.632;8.346;2023-02-08T08:11:06;18.70;;;7.13;;
19810;SDS011;10065;49.632;8.346;2023-02-08T08:13:33;24.23;;;8.37;;
19810;SDS011;10065;49.632;8.346;2023-02-08T08:16:01;18.77;;;8.40;;
19810;SDS011;10065;49.632;8.346;2023-02-08T08:18:29;16.27;;;6.87;;
19810;SDS011;10065;49.632;8.346;2023-02-08T08:20:58;17.37;;;7.87;;
19810;SDS011;10065;49.632;8.346;2023-02-08T08:23:26;24.93;;;8.23;;
19810;SDS011;10065;49.632;8.346;2023-02-08T08:25:54;18.10;;;7.90;;
19810;SDS011;10065;49.632;8.346;2023-02-08T08:28:22;27.90;;;8.83;;
19810;SDS011;10065;49.632;8.346;2023-02-08T08:30:50;20.70;;;8.60;;
19810;SDS011;10065;49.632;8.346;2023-02-08T08:33:17;19.53;;;7.63;;
19810;SDS011;10065;49.632;8.346;2023-02-08T08:35:46;27.20;;;8.67;;
19810;SDS011;10065;49.632;8.346;2023-02-08T08:38:15;18.77;;;8.03;;
19810;SDS011;10065;49.632;8.346;2023-02-08T08:40:42;22.33;;;8.03;;
19810;SDS011;10065;49.632;8.346;2023-02-08T08:43:10;20.60;;;8.33;;
19810;SDS011;10065;49.632;8.346;2023-02-08T08:45:38;21.83;;;7.43;;
19810;SDS011;10065;49.632;8.346;2023-02-08T08:48:06;17.07;;;7.70;;
19810;SDS011;10065;49.632;8.346;2023-02-08T08:50:33;16.33;;;8.20;;
19810;SDS011;10065;49.632;8.346;2023-02-08T08:53:01;16.33;;;8.13;;
19810;SDS011;10065;49.632;8.346;2023-02-08T08:55:30;17.83;;;8.43;;
19810;SDS011;10065;49.632;8.346;2023-02-08T08:57:58;14.90;;;7.50;;
19810;SDS011;10065;49.632;8.346;2023-02-08T09:00:25;16.63;;;7.73;;
19810;SDS011;10065;49.632;8.346;2023-02-08T09:02:53;15.07;;;7.30;;
19810;SDS011;10065;49.632;8.346;2023-02-08T09:05:21;18.50;;;8.30;;
19810;SDS011;10065;49.632;8.346;2023-02-08T09:07:49;18.33;;;8.13;;
19810;SDS011;10065;49.632;8.346;2023-02-08T09:10:16;22.60;;;9.47;;
19810;SDS011;10065;49.632;8.346;2023-02-08T09:12:46;22.80;;;8.77;;
19810;SDS011;10065;49.632;8.346;2023-02-08T09:15:14;17.30;;;8.40;;
19810;SDS011;10065;49.632;8.346;2023-02-08T09:17:47;20.67;;;9.27;;
19810;SDS011;10065;49.632;8.346;2023-02-08T09:20:15;16.43;;;8.63;;
19810;SDS011;10065;49.632;8.346;2023-02-08T09:22:43;18.43;;;8.47;;
19810;SDS011;10065;49.632;8.346;2023-02-08T09:25:10;18.77;;;8.60;;
19810;SDS011;10065;49.632;8.346;2023-02-08T09:27:38;20.53;;;9.67;;
19810;SDS011;10065;49.632;8.346;2023-02-08T09:30:08;17.60;;;9.37;;
19810;SDS011;10065;49.632;8.346;2023-02-08T09:32:37;20.33;;;10.80;;
19810;SDS011;10065;49.632;8.346;2023-02-08T09:35:05;16.47;;;9.50;;
19810;SDS011;10065;49.632;8.346;2023-02-08T09:37:34;21.33;;;10.93;;
19810;SDS011;10065;49.632;8.346;2023-02-08T09:40:01;23.83;;;10.47;;
19810;SDS011;10065;49.632;8.346;2023-02-08T09:42:32;18.67;;;11.00;;
19810;SDS011;10065;49.632;8.346;2023-02-08T09:48:04;14.80;;;9.53;;
19810;SDS011;10065;49.632;8.346;2023-02-08T09:50:43;15.03;;;9.90;;
19810;SDS011;10065;49.632;8.346;2023-02-08T09:53:16;18.83;;;10.53;;
19810;SDS011;10065;49.632;8.346;2023-02-08T09:55:47;16.93;;;10.90;;
19810;SDS011;10065;49.632;8.346;2023-02-08T09:58:19;15.67;;;11.23;;
19810;SDS011;10065;49.632;8.346;2023-02-08T10:00:52;16.03;;;10.70;;
19810;SDS011;10065;49.632;8.346;2023-02-08T10:03:22;17.90;;;11.30;;
19810;SDS011;10065;49.632;8.346;2023-02-08T10:05:55;14.27;;;10.80;;
19810;SDS011;10065;49.632;8.346;2023-02-08T10:08:23;19.00;;;11.20;;
19810;SDS011;10065;49.632;8.346;2023-02-08T10:11:03;22.80;;;11.18;;
19810;SDS011;10065;49.632;8.346;2023-02-08T10:13:43;14.53;;;9.77;;
19810;SDS011;10065;49.632;8.346;2023-02-08T10:16:30;15.60;;;11.27;;
19810;SDS011;10065;49.632;8.346;2023-02-08T10:19:10;18.50;;;11.47;;
19810;SDS011;10065;49.632;8.346;2023-02-08T10:21:49;18.53;;;10.40;;
19810;SDS011;10065;49.632;8.346;2023-02-08T10:24:30;20.73;;;10.57;;
19810;SDS011;10065;49.632;8.346;2023-02-08T10:27:09;16.83;;;10.43;;
19810;SDS011;10065;49.632;8.346;2023-02-08T10:32:41;16.20;;;10.83;;
19810;SDS011;10065;49.632;8.346;2023-02-08T10:35:17;18.43;;;10.90;;
19810;SDS011;10065;49.632;8.346;2023-02-08T10:37:51;16.73;;;9.83;;
19810;SDS011;10065;49.632;8.346;2023-02-08T10:40:31;17.20;;;10.90;;
19810;SDS011;10065;49.632;8.346;2023-02-08T10:43:04;24.35;;;11.63;;
19810;SDS011;10065;49.632;8.346;2023-02-08T10:45:42;17.17;;;10.65;;
19810;SDS011;10065;49.632;8.346;2023-02-08T10:48:19;15.65;;;10.38;;
19810;SDS011;10065;49.632;8.346;2023-02-08T10:50:57;17.13;;;10.82;;
19810;SDS011;10065;49.632;8.346;2023-02-08T10:53:25;17.02;;;11.40;;
19810;SDS011;10065;49.632;8.346;2023-02-08T10:55:53;23.17;;;12.98;;
19810;SDS011;10065;49.632;8.346;2023-02-08T10:58:23;16.40;;;9.70;;
19810;SDS011;10065;49.632;8.346;2023-02-08T11:00:52;15.27;;;11.65;;
19810;SDS011;10065;49.632;8.346;2023-02-08T11:03:25;16.52;;;11.10;;
19810;SDS011;10065;49.632;8.346;2023-02-08T11:05:55;12.85;;;10.63;;
19810;SDS011;10065;49.632;8.346;2023-02-08T11:08:23;16.45;;;10.40;;
19810;SDS011;10065;49.632;8.346;2023-02-08T11:10:56;20.20;;;11.38;;
19810;SDS011;10065;49.632;8.346;2023-02-08T11:13:30;17.13;;;10.65;;
19810;SDS011;10065;49.632;8.346;2023-02-08T11:16:03;17.58;;;11.10;;
19810;SDS011;10065;49.632;8.346;2023-02-08T11:18:34;15.20;;;10.18;;
19810;SDS011;10065;49.632;8.346;2023-02-08T11:21:06;16.25;;;10.65;;
19810;SDS011;10065;49.632;8.346;2023-02-08T11:23:38;19.57;;;9.80;;
19810;SDS011;10065;49.632;8.346;2023-02-08T11:26:15;16.73;;;10.40;;
19810;SDS011;10065;49.632;8.346;2023-02-08T11:28:49;15.80;;;10.53;;
19810;SDS011;10065;49.632;8.346;2023-02-08T11:31:26;14.77;;;9.33;;
19810;SDS011;10065;49.632;8.346;2023-02-08T11:34:00;16.03;;;10.00;;
19810;SDS011;10065;49.632;8.346;2023-02-08T11:36:29;17.10;;;11.03;;
19810;SDS011;10065;49.632;8.346;2023-02-08T11:39:00;15.43;;;10.10;;
19810;SDS011;10065;49.632;8.346;2023-02-08T11:41:28;28.13;;;10.93;;
19810;SDS011;10065;49.632;8.346;2023-02-08T11:43:58;18.43;;;11.20;;
19810;SDS011;10065;49.632;8.346;2023-02-08T11:46:29;17.70;;;11.27;;
19810;SDS011;10065;49.632;8.346;2023-02-08T11:49:01;17.23;;;11.33;;
19810;SDS011;10065;49.632;8.346;2023-02-08T11:51:30;18.52;;;11.65;;
19810;SDS011;10065;49.632;8.346;2023-02-08T11:54:01;19.17;;;11.43;;
19810;SDS011;10065;49.632;8.346;2023-02-08T11:56:32;13.70;;;10.68;;
19810;SDS011;10065;49.632;8.346;2023-02-08T11:59:02;14.02;;;10.27;;
19810;SDS011;10065;49.632;8.346;2023-02-08T12:01:33;14.20;;;10.02;;
19810;SDS011;10065;49.632;8.346;2023-02-08T12:04:05;17.15;;;10.93;;
19810;SDS011;10065;49.632;8.346;2023-02-08T12:06:59;18.48;;;10.95;;
19810;SDS011;10065;49.632;8.346;2023-02-08T12:09:42;18.60;;;10.55;;
19810;SDS011;10065;49.632;8.346;2023-02-08T12:12:27;17.60;;;11.27;;
19810;SDS011;10065;49.632;8.346;2023-02-08T12:15:06;13.35;;;10.73;;
19810;SDS011;10065;49.632;8.346;2023-02-08T12:17:55;17.08;;;10.20;;
19810;SDS011;10065;49.632;8.346;2023-02-08T12:20:40;17.13;;;11.27;;
19810;SDS011;10065;49.632;8.346;2023-02-08T12:26:17;18.88;;;11.10;;
19810;SDS011;10065;49.632;8.346;2023-02-08T12:28:58;13.63;;;9.77;;
19810;SDS011;10065;49.632;8.346;2023-02-08T12:31:37;14.40;;;10.33;;
19810;SDS011;10065;49.632;8.346;2023-02-08T12:34:19;14.60;;;10.00;;
19810;SDS011;10065;49.632;8.346;2023-02-08T12:37:06;19.03;;;10.67;;
19810;SDS011;10065;49.632;8.346;2023-02-08T12:40:11;15.47;;;9.37;;
19810;SDS011;10065;49.632;8.346;2023-02-08T12:43:08;14.57;;;9.30;;
19810;SDS011;10065;49.632;8.346;2023-02-08T12:49:12;19.50;;;10.27;;
19810;SDS011;10065;49.632;8.346;2023-02-08T12:52:00;18.83;;;9.27;;
19810;SDS011;10065;49.632;8.346;2023-02-08T12:54:39;17.10;;;9.90;;
19810;SDS011;10065;49.632;8.346;2023-02-08T12:57:11;15.93;;;9.33;;
19810;SDS011;10065;49.632;8.346;2023-02-08T12:59:42;15.17;;;9.53;;
19810;SDS011;10065;49.632;8.346;2023-02-08T13:02:15;15.50;;;10.13;;
19810;SDS011;10065;49.632;8.346;2023-02-08T13:04:47;15.70;;;9.93;;
19810;SDS011;10065;49.632;8.346;2023-02-08T13:07:20;17.27;;;11.10;;
19810;SDS011;10065;49.632;8.346;2023-02-08T13:09:54;15.87;;;9.77;;
19810;SDS011;10065;49.632;8.346;2023-02-08T13:12:28;15.98;;;10.23;;
19810;SDS011;10065;49.632;8.346;2023-02-08T13:15:01;14.13;;;10.07;;
19810;SDS011;10065;49.632;8.346;2023-02-08T13:17:43;14.52;;;9.77;;
19810;SDS011;10065;49.632;8.346;2023-02-08T13:20:19;18.92;;;10.00;;
19810;SDS011;10065;49.632;8.346;2023-02-08T13:22:56;12.02;;;9.48;;
19810;SDS011;10065;49.632;8.346;2023-02-08T13:25:29;12.18;;;9.48;;
19810;SDS011;10065;49.632;8.346;2023-02-08T13:28:01;13.27;;;9.82;;
19810;SDS011;10065;49.632;8.346;2023-02-08T13:30:30;13.50;;;9.20;;
19810;SDS011;10065;49.632;8.346;2023-02-08T13:32:59;13.00;;;10.20;;
19810;SDS011;10065;49.632;8.346;2023-02-08T13:35:33;14.98;;;9.75;;
19810;SDS011;10065;49.632;8.346;2023-02-08T13:38:02;17.05;;;10.20;;
19810;SDS011;10065;49.632;8.346;2023-02-08T13:40:34;14.27;;;9.67;;
19810;SDS011;10065;49.632;8.346;2023-02-08T13:43:04;19.00;;;10.67;;
19810;SDS011;10065;49.632;8.346;2023-02-08T13:45:36;16.17;;;10.33;;
19810;SDS011;10065;49.632;8.346;2023-02-08T13:48:09;15.60;;;8.80;;
19810;SDS011;10065;49.632;8.346;2023-02-08T13:50:44;18.67;;;9.93;;
19810;SDS011;10065;49.632;8.346;2023-02-08T13:53:14;12.60;;;8.50;;
19810;SDS011;10065;49.632;8.346;2023-02-08T13:55:51;17.67;;;8.40;;
19810;SDS011;10065;49.632;8.346;2023-02-08T13:58:26;19.23;;;9.03;;
19810;SDS011;10065;49.632;8.346;2023-02-08T14:01:14;20.90;;;10.57;;
19810;SDS011;10065;49.632;8.346;2023-02-08T14:03:47;18.37;;;9.90;;
19810;SDS011;10065;49.632;8.346;2023-02-08T14:06:44;16.07;;;8.30;;
19810;SDS011;10065;49.632;8.346;2023-02-08T14:09:17;20.30;;;8.87;;
19810;SDS011;10065;49.632;8.346;2023-02-08T14:11:50;16.70;;;8.20;;
19810;SDS011;10065;49.632;8.346;2023-02-08T14:14:23;16.67;;;8.77;;
19810;SDS011;10065;49.632;8.346;2023-02-08T14:19:54;16.50;;;7.80;;
19810;SDS011;10065;49.632;8.346;2023-02-08T14:22:25;17.53;;;9.03;;
19810;SDS011;10065;49.632;8.346;2023-02-08T14:24:59;15.33;;;8.43;;
19810;SDS011;10065;49.632;8.346;2023-02-08T14:27:30;14.67;;;7.70;;
19810;SDS011;10065;49.632;8.346;2023-02-08T14:30:04;14.23;;;7.47;;
19810;SDS011;10065;49.632;8.346;2023-02-08T14:32:34;16.47;;;8.67;;
19810;SDS011;10065;49.632;8.346;2023-02-08T14:35:05;17.17;;;7.93;;
19810;SDS011;10065;49.632;8.346;2023-02-08T14:37:36;15.67;;;7.90;;
19810;SDS011;10065;49.632;8.346;2023-02-08T14:46:40;19.17;;;8.13;;
19810;SDS011;10065;49.632;8.346;2023-02-08T14:49:08;23.23;;;8.27;;
19810;SDS011;10065;49.632;8.346;2023-02-08T14:51:38;19.27;;;8.33;;
19810;SDS011;10065;49.632;8.346;2023-02-08T14:54:14;20.07;;;8.17;;
19810;SDS011;10065;49.632;8.346;2023-02-08T14:56:52;18.97;;;8.00;;
19810;SDS011;10065;49.632;8.346;2023-02-08T14:59:26;16.10;;;7.63;;
19810;SDS011;10065;49.632;8.346;2023-02-08T15:01:58;18.13;;;7.97;;
19810;SDS011;10065;49.632;8.346;2023-02-08T15:04:28;22.17;;;8.53;;
19810;SDS011;10065;49.632;8.346;2023-02-08T15:07:17;15.93;;;8.20;;
19810;SDS011;10065;49.632;8.346;2023-02-08T15:09:57;18.80;;;7.90;;
19810;SDS011;10065;49.632;8.346;2023-02-08T15:12:29;17.87;;;8.73;;
19810;SDS011;10065;49.632;8.346;2023-02-08T15:15:02;13.93;;;7.30;;
19810;SDS011;10065;49.632;8.346;2023-02-08T15:17:33;15.60;;;7.20;;
19810;SDS011;10065;49.632;8.346;2023-02-08T15:20:06;16.07;;;7.47;;
19810;SDS011;10065;49.632;8.346;2023-02-08T15:22:42;13.83;;;7.03;;
19810;SDS011;10065;49.632;8.346;2023-02-08T15:25:15;14.43;;;7.30;;
19810;SDS011;10065;49.632;8.346;2023-02-08T15:27:48;21.53;;;9.20;;
19810;SDS011;10065;49.632;8.346;2023-02-08T15:30:23;14.87;;;7.07;;